createdAt,value
2023-01-07T00:00:02.200Z,100976.41
2023-01-07T00:03:16.571Z,101002.47
2023-01-07T00:06:27.599Z,101005.50
2023-01-07T00:09:30.058Z,100985.72
2023-01-07T00:12:33.207Z,101002.00
2023-01-07T00:15:37.112Z,100987.13
2023-01-07T00:18:39.827Z,100989.13
2023-01-07T00:21:42.825Z,101009.72
2023-01-07T00:24:45.505Z,101003.22
2023-01-07T00:27:48.298Z,100984.69
2023-01-07T00:30:51.912Z,100974.62
2023-01-07T00:33:55.252Z,100901.91
2023-01-07T00:37:17.986Z,101020.00
2023-01-07T00:40:22.087Z,101020.53
2023-01-07T00:43:24.969Z,101022.66
2023-01-07T00:46:27.512Z,101009.63
2023-01-07T00:49:30.343Z,100996.91
2023-01-07T00:52:32.705Z,100991.66
2023-01-07T00:55:35.583Z,100986.31
2023-01-07T00:58:38.458Z,101008.09
2023-01-07T01:01:41.443Z,100998.53
2023-01-07T01:04:44.002Z,101034.16
2023-01-07T01:07:49.290Z,101027.06
2023-01-07T01:10:51.650Z,101021.06
2023-01-07T01:13:54.740Z,101027.41
2023-01-07T01:17:02.828Z,101030.31
2023-01-07T01:20:13.764Z,101026.97
2023-01-07T01:23:16.238Z,101007.22
2023-01-07T01:26:22.932Z,101026.97
2023-01-07T01:29:28.311Z,100998.84
2023-01-07T01:32:31.697Z,101020.09
2023-01-07T01:35:34.202Z,101008.81
2023-01-07T01:38:37.183Z,101011.84
2023-01-07T01:41:40.167Z,101013.69
2023-01-07T01:44:59.618Z,101015.16
2023-01-07T01:48:09.755Z,101023.81
2023-01-07T01:51:17.170Z,101016.06
2023-01-07T01:54:20.659Z,100989.94
2023-01-07T01:57:26.339Z,101002.06
2023-01-07T02:00:30.197Z,101001.56
2023-01-07T02:03:36.518Z,100978.75
2023-01-07T02:06:50.686Z,100998.25
2023-01-07T02:10:10.048Z,100993.66
2023-01-07T02:13:27.817Z,100997.44
2023-01-07T02:16:48.669Z,100992.25
2023-01-07T02:20:12.797Z,100961.81
2023-01-07T02:23:15.684Z,100981.88
2023-01-07T02:26:45.641Z,100979.44
2023-01-07T02:29:57.295Z,100962.41
2023-01-07T02:33:14.728Z,100945.00
2023-01-07T02:36:29.738Z,100972.47
2023-01-07T02:40:04.334Z,100977.19
2023-01-07T02:43:16.563Z,100973.19
2023-01-07T02:46:25.897Z,100983.31
2023-01-07T02:49:28.787Z,100953.50
2023-01-07T02:52:33.381Z,100976.94
2023-01-07T02:55:50.430Z,100975.44
2023-01-07T02:59:06.183Z,100972.53
2023-01-07T03:02:39.893Z,100986.37
2023-01-07T03:06:03.956Z,100944.47
2023-01-07T03:09:33.859Z,100984.75
2023-01-07T03:12:54.814Z,100976.03
2023-01-07T03:16:04.076Z,100969.50
2023-01-07T03:19:16.636Z,100974.47
2023-01-07T03:22:22.644Z,100939.94
2023-01-07T03:25:30.781Z,100946.44
2023-01-07T03:28:40.533Z,100968.50
2023-01-07T03:32:02.951Z,100950.06
2023-01-07T03:35:06.269Z,100965.84
2023-01-07T03:38:10.274Z,100961.25
2023-01-07T03:41:33.070Z,100938.19
2023-01-07T03:44:37.057Z,100961.59
2023-01-07T03:47:45.111Z,100966.47
2023-01-07T03:50:48.050Z,100937.72
2023-01-07T03:53:51.055Z,100952.88
2023-01-07T03:56:53.528Z,100921.31
2023-01-07T03:59:56.188Z,100926.03
2023-01-07T04:02:58.629Z,100928.06
2023-01-07T04:06:01.620Z,100953.56
2023-01-07T04:09:04.297Z,100935.37
2023-01-07T04:12:08.359Z,100932.94
2023-01-07T04:15:11.338Z,100959.53
2023-01-07T04:18:14.167Z,100955.75
2023-01-07T04:21:16.573Z,100961.22
2023-01-07T04:24:19.287Z,100957.97
2023-01-07T04:27:21.787Z,100927.25
2023-01-07T04:30:24.740Z,100927.81
2023-01-07T04:33:27.253Z,100924.50
2023-01-07T04:36:30.039Z,100960.69
2023-01-07T04:39:32.779Z,100961.22
2023-01-07T04:42:38.305Z,100964.00
2023-01-07T04:45:42.205Z,100972.50
2023-01-07T04:48:45.339Z,100972.50
2023-01-07T04:51:47.934Z,100966.78
2023-01-07T04:54:51.681Z,100899.50
2023-01-07T04:57:56.397Z,100964.69
2023-01-07T05:00:59.966Z,100964.78
2023-01-07T05:04:03.754Z,100963.16
2023-01-07T05:07:08.562Z,100937.06
2023-01-07T05:10:11.003Z,100939.28
2023-01-07T05:13:18.094Z,100952.31
2023-01-07T05:16:21.030Z,100942.63
2023-01-07T05:19:23.813Z,100970.69
2023-01-07T05:22:26.865Z,100950.78
2023-01-07T05:25:30.416Z,100971.44
2023-01-07T05:28:32.974Z,100960.56
2023-01-07T05:31:37.006Z,100958.87
2023-01-07T05:34:40.123Z,100969.84
2023-01-07T05:37:43.545Z,100975.00
2023-01-07T05:40:50.023Z,100944.25
2023-01-07T05:43:55.699Z,100848.66
2023-01-07T05:46:58.167Z,100962.37
2023-01-07T05:50:00.825Z,100941.97
2023-01-07T05:53:03.195Z,100950.38
2023-01-07T05:56:06.074Z,100975.91
2023-01-07T05:59:08.450Z,100980.22
2023-01-07T06:02:11.250Z,100980.47
2023-01-07T06:05:13.917Z,100953.47
2023-01-07T06:08:16.349Z,100946.34
2023-01-07T06:11:19.061Z,100971.41
2023-01-07T06:14:21.417Z,100979.56
2023-01-07T06:17:24.097Z,100977.91
2023-01-07T06:20:26.621Z,100981.41
2023-01-07T06:23:29.645Z,100959.13
2023-01-07T06:26:32.338Z,100965.84
2023-01-07T06:29:35.074Z,100977.03
2023-01-07T06:32:39.149Z,100974.81
2023-01-07T06:35:42.253Z,100968.50
2023-01-07T06:38:44.649Z,100965.75
2023-01-07T06:41:47.367Z,100955.44
2023-01-07T06:44:49.721Z,100965.25
2023-01-07T06:47:53.619Z,100972.37
2023-01-07T06:50:56.050Z,100974.59
2023-01-07T06:53:58.771Z,100975.78
2023-01-07T06:57:01.417Z,100975.00
2023-01-07T07:00:07.612Z,100984.88
2023-01-07T07:03:10.211Z,100991.16
2023-01-07T07:06:12.938Z,100991.72
2023-01-07T07:09:15.354Z,100953.91
2023-01-07T07:12:19.319Z,100982.00
2023-01-07T07:15:21.693Z,100964.62
2023-01-07T07:18:24.353Z,100990.72
2023-01-07T07:21:26.756Z,100963.00
2023-01-07T07:24:29.409Z,100980.72
2023-01-07T07:27:31.901Z,100987.97
2023-01-07T07:30:45.921Z,100989.59
2023-01-07T07:33:50.207Z,100998.31
2023-01-07T07:36:53.034Z,100988.69
2023-01-07T07:39:55.928Z,100979.97
2023-01-07T07:43:11.592Z,101012.56
2023-01-07T07:46:15.506Z,101013.78
2023-01-07T07:49:21.360Z,100965.13
2023-01-07T07:52:23.790Z,101010.41
2023-01-07T07:55:26.751Z,101013.03
2023-01-07T07:58:29.114Z,101017.31
2023-01-07T08:01:31.918Z,101019.91
2023-01-07T08:04:37.323Z,100986.06
2023-01-07T08:07:39.831Z,100986.50
2023-01-07T08:10:42.706Z,100995.56
2023-01-07T08:13:46.412Z,100983.41
2023-01-07T08:16:48.949Z,101008.69
2023-01-07T08:19:51.262Z,101015.56
2023-01-07T08:22:54.370Z,101008.75
2023-01-07T08:26:02.859Z,101008.41
2023-01-07T08:29:05.552Z,101000.13
2023-01-07T08:32:07.949Z,100999.47
2023-01-07T08:35:10.918Z,101008.78
2023-01-07T08:38:13.464Z,101005.50
2023-01-07T08:41:16.111Z,100979.56
2023-01-07T08:44:18.457Z,100998.22
2023-01-07T08:47:21.186Z,100971.12
2023-01-07T08:50:28.385Z,100960.06
2023-01-07T08:53:31.067Z,100971.22
2023-01-07T08:56:33.741Z,100986.37
2023-01-07T08:59:38.698Z,100979.06
2023-01-07T09:02:41.119Z,100985.38
2023-01-07T09:05:46.706Z,100966.97
2023-01-07T09:08:52.423Z,100978.38
2023-01-07T09:11:55.097Z,100976.50
2023-01-07T09:14:57.639Z,100975.53
2023-01-07T09:18:03.500Z,100995.09
2023-01-07T09:21:06.162Z,100997.72
2023-01-07T09:24:09.400Z,100997.91
2023-01-07T09:27:11.850Z,100974.88
2023-01-07T09:30:14.962Z,100972.78
2023-01-07T09:33:17.331Z,100974.16
2023-01-07T09:36:19.984Z,100989.09
2023-01-07T09:39:22.324Z,100966.41
2023-01-07T09:42:27.716Z,100983.06
2023-01-07T09:45:36.857Z,100980.47
2023-01-07T09:48:44.968Z,100977.88
2023-01-07T09:51:57.289Z,100978.84
2023-01-07T09:55:17.566Z,100975.87
2023-01-07T09:58:21.858Z,100963.38
2023-01-07T10:01:36.596Z,100945.25
2023-01-07T10:05:02.222Z,100971.09
2023-01-07T10:08:33.502Z,100953.91
2023-01-07T10:12:17.679Z,100956.19
2023-01-07T10:15:38.605Z,100958.25
2023-01-07T10:18:54.759Z,100951.53
2023-01-07T10:22:02.810Z,100932.50
2023-01-07T10:25:19.680Z,100950.03
2023-01-07T10:28:38.857Z,100939.81
2023-01-07T10:31:42.712Z,100920.94
2023-01-07T10:34:48.019Z,100943.62
2023-01-07T10:37:51.230Z,100918.22
2023-01-07T10:40:59.538Z,100935.88
2023-01-07T10:44:25.890Z,100925.91
2023-01-07T10:47:30.986Z,100930.69
2023-01-07T10:51:17.936Z,100927.75
2023-01-07T10:54:34.520Z,100923.16
2023-01-07T10:57:38.855Z,100921.22
2023-01-07T11:00:41.737Z,100912.69
2023-01-07T11:03:47.071Z,100904.63
2023-01-07T11:06:59.000Z,100890.41
2023-01-07T11:10:05.480Z,100900.28
2023-01-07T11:13:24.492Z,100879.06
2023-01-07T11:16:31.979Z,100892.81
2023-01-07T11:19:44.558Z,100857.87
2023-01-07T11:22:47.243Z,100880.31
2023-01-07T11:25:49.641Z,100864.47
2023-01-07T11:28:56.493Z,100863.59
2023-01-07T11:32:02.631Z,100882.56
2023-01-07T11:35:18.039Z,100874.78
2023-01-07T11:38:30.730Z,100843.28
2023-01-07T11:41:53.053Z,100857.41
2023-01-07T11:45:17.056Z,100862.69
2023-01-07T11:48:30.327Z,100863.28
2023-01-07T11:51:40.645Z,100846.28
2023-01-07T11:54:50.222Z,100824.41
2023-01-07T11:58:28.314Z,100840.84
2023-01-07T12:01:23.272Z,100840.81
2023-01-07T12:04:36.390Z,100830.00
2023-01-07T12:07:44.706Z,100831.62
2023-01-07T12:10:59.974Z,100833.69
2023-01-07T12:14:20.164Z,100806.50
2023-01-07T12:17:28.542Z,100814.62
2023-01-07T12:21:24.264Z,100815.56
2023-01-07T12:24:38.304Z,100812.63
2023-01-07T12:27:52.827Z,100807.09
2023-01-07T12:31:24.284Z,100811.62
2023-01-07T12:34:51.880Z,100798.78
2023-01-07T12:38:05.002Z,100803.19
2023-01-07T12:41:25.403Z,100782.94
2023-01-07T12:44:28.205Z,100756.19
2023-01-07T12:47:38.915Z,100797.69
2023-01-07T12:50:46.214Z,100795.53
2023-01-07T12:54:12.241Z,100790.88
2023-01-07T12:57:21.209Z,100766.16
2023-01-07T13:00:27.699Z,100767.56
2023-01-07T13:04:11.994Z,100774.91
2023-01-07T13:07:25.439Z,100783.44
2023-01-07T13:10:38.460Z,100777.59
2023-01-07T13:13:45.932Z,100774.69
2023-01-07T13:16:49.352Z,100779.53
2023-01-07T13:19:53.024Z,100758.59
2023-01-07T13:22:57.375Z,100757.22
2023-01-07T13:26:44.883Z,100743.69
2023-01-07T13:30:08.942Z,100762.44
2023-01-07T13:33:28.880Z,100760.97
2023-01-07T13:37:05.970Z,100759.13
2023-01-07T13:40:24.588Z,100764.47
2023-01-07T13:43:54.745Z,100761.25
2023-01-07T13:46:57.453Z,100766.81
2023-01-07T13:50:02.538Z,100751.81
2023-01-07T13:53:26.635Z,100754.06
2023-01-07T13:56:30.949Z,100760.75
2023-01-07T13:59:47.973Z,100761.88
2023-01-07T14:02:58.137Z,100765.66
2023-01-07T14:06:22.112Z,100759.00
2023-01-07T14:09:32.277Z,100770.50
2023-01-07T14:13:10.013Z,100742.63
2023-01-07T14:16:31.134Z,100781.16
2023-01-07T14:19:58.638Z,100779.66
2023-01-07T14:23:21.021Z,100781.34
2023-01-07T14:26:29.994Z,100774.19
2023-01-07T14:29:41.141Z,100776.25
2023-01-07T14:32:46.815Z,100775.84
2023-01-07T14:35:59.019Z,100770.84
2023-01-07T14:39:02.660Z,100746.44
2023-01-07T14:42:20.354Z,100751.31
2023-01-07T14:45:41.452Z,100774.38
2023-01-07T14:48:43.935Z,100776.47
2023-01-07T14:52:09.668Z,100772.09
2023-01-07T14:55:21.648Z,100776.97
2023-01-07T14:58:59.342Z,100775.69
2023-01-07T15:02:39.490Z,100757.69
2023-01-07T15:06:05.192Z,100776.34
2023-01-07T15:09:36.438Z,100771.16
2023-01-07T15:13:01.418Z,100769.84
2023-01-07T15:16:07.424Z,100764.62
2023-01-07T15:19:12.756Z,100774.03
2023-01-07T15:22:34.975Z,100739.66
2023-01-07T15:25:57.260Z,100763.63
2023-01-07T15:29:27.787Z,100760.84
2023-01-07T15:32:57.942Z,100774.75
2023-01-07T15:36:04.496Z,100751.69
2023-01-07T15:39:13.708Z,100753.22
2023-01-07T15:42:20.402Z,100767.47
2023-01-07T15:45:25.149Z,100785.31
2023-01-07T15:48:27.937Z,100749.72
2023-01-07T15:51:39.801Z,100758.47
2023-01-07T15:54:42.493Z,100789.56
2023-01-07T15:57:46.380Z,100769.22
2023-01-07T16:00:53.332Z,100795.16
2023-01-07T16:03:57.264Z,100789.47
2023-01-07T16:07:00.673Z,100798.31
2023-01-07T16:10:03.635Z,100770.88
2023-01-07T16:13:18.236Z,100803.56
2023-01-07T16:16:21.193Z,100798.53
2023-01-07T16:19:23.574Z,100758.56
2023-01-07T16:22:27.836Z,100774.09
2023-01-07T16:25:40.236Z,100801.34
2023-01-07T16:28:48.773Z,100790.78
2023-01-07T16:31:51.680Z,100791.72
2023-01-07T16:35:00.416Z,100777.97
2023-01-07T16:38:03.715Z,100799.87
2023-01-07T16:41:06.839Z,100811.28
2023-01-07T16:44:49.684Z,100781.03
2023-01-07T16:48:14.994Z,100800.47
2023-01-07T16:51:39.833Z,100782.50
2023-01-07T16:54:46.794Z,100820.53
2023-01-07T16:57:49.317Z,100796.56
2023-01-07T17:00:54.145Z,100788.44
2023-01-07T17:03:59.833Z,100795.97
2023-01-07T17:07:02.988Z,100783.16
2023-01-07T17:10:06.629Z,100801.84
2023-01-07T17:13:15.408Z,100820.53
2023-01-07T17:16:36.944Z,100794.09
2023-01-07T17:19:42.103Z,100798.97
2023-01-07T17:22:45.538Z,100799.56
2023-01-07T17:25:49.199Z,100795.28
2023-01-07T17:29:01.402Z,100799.19
2023-01-07T17:32:04.550Z,100824.25
2023-01-07T17:35:07.519Z,100803.63
2023-01-07T17:38:13.120Z,100821.00
2023-01-07T17:41:41.746Z,100820.41
2023-01-07T17:44:45.735Z,100819.91
2023-01-07T17:47:49.691Z,100800.75
2023-01-07T17:50:53.585Z,100829.22
2023-01-07T17:53:58.667Z,100810.53
2023-01-07T17:57:01.379Z,100829.81
2023-01-07T18:00:04.441Z,100831.97
2023-01-07T18:03:15.154Z,100802.00
2023-01-07T18:06:27.583Z,100805.47
2023-01-07T18:09:29.886Z,100807.06
2023-01-07T18:12:34.987Z,100810.41
2023-01-07T18:15:37.363Z,100838.97
2023-01-07T18:18:40.034Z,100838.56
2023-01-07T18:21:42.650Z,100809.09
2023-01-07T18:24:45.241Z,100829.00
2023-01-07T18:27:49.295Z,100804.31
2023-01-07T18:30:51.977Z,100831.47
2023-01-07T18:33:54.328Z,100803.91
2023-01-07T18:36:57.657Z,100826.69
2023-01-07T18:40:02.340Z,100808.19
2023-01-07T18:43:05.303Z,100808.69
2023-01-07T18:46:09.525Z,100795.47
2023-01-07T18:49:12.445Z,100827.28
2023-01-07T18:52:14.781Z,100833.06
2023-01-07T18:55:19.316Z,100830.44
2023-01-07T18:58:22.912Z,100835.62
2023-01-07T19:01:25.823Z,100808.69
2023-01-07T19:04:28.516Z,100830.03
2023-01-07T19:07:33.418Z,100827.31
2023-01-07T19:10:41.585Z,100820.69
2023-01-07T19:13:45.550Z,100797.94
2023-01-07T19:16:48.084Z,100807.91
2023-01-07T19:19:53.841Z,100825.06
2023-01-07T19:23:00.395Z,100778.03
2023-01-07T19:26:06.602Z,100790.72
2023-01-07T19:29:09.761Z,100795.69
2023-01-07T19:32:12.496Z,100795.97
2023-01-07T19:35:15.190Z,100822.09
2023-01-07T19:38:17.855Z,100811.72
2023-01-07T19:41:22.394Z,100809.53
2023-01-07T19:44:25.178Z,100820.88
2023-01-07T19:47:27.870Z,100817.84
2023-01-07T19:50:30.517Z,100792.47
2023-01-07T19:53:34.561Z,100791.22
2023-01-07T19:56:37.379Z,100820.06
2023-01-07T19:59:39.946Z,100810.13
2023-01-07T20:02:42.650Z,100781.66
2023-01-07T20:05:45.408Z,100810.94
2023-01-07T20:08:48.393Z,100781.28
2023-01-07T20:11:51.145Z,100808.69
2023-01-07T20:14:53.813Z,100768.47
2023-01-07T20:17:56.581Z,100803.84
2023-01-07T20:20:59.882Z,100801.59
2023-01-07T20:24:04.123Z,100795.81
2023-01-07T20:27:06.873Z,100768.69
2023-01-07T20:30:10.894Z,100783.84
2023-01-07T20:33:13.366Z,100744.34
2023-01-07T20:36:28.025Z,100785.97
2023-01-07T20:39:30.446Z,100727.91
2023-01-07T20:42:33.084Z,100776.03
2023-01-07T20:45:38.291Z,100775.94
2023-01-07T20:48:42.985Z,100788.44
2023-01-07T20:51:45.403Z,100781.09
2023-01-07T20:54:48.100Z,100756.13
2023-01-07T20:57:50.529Z,100783.72
2023-01-07T21:00:53.896Z,100776.66
2023-01-07T21:03:56.433Z,100745.47
2023-01-07T21:06:59.103Z,100766.47
2023-01-07T21:10:01.533Z,100742.69
2023-01-07T21:13:05.248Z,100737.53
2023-01-07T21:16:08.139Z,100771.88
2023-01-07T21:19:11.363Z,100768.53
2023-01-07T21:22:13.781Z,100707.06
2023-01-07T21:25:18.090Z,100765.84
2023-01-07T21:28:20.545Z,100771.75
2023-01-07T21:31:23.681Z,100763.03
2023-01-07T21:34:26.397Z,100760.31
2023-01-07T21:37:29.465Z,100760.59
2023-01-07T21:40:31.900Z,100759.16
2023-01-07T21:43:35.113Z,100729.94
2023-01-07T21:46:37.558Z,100737.03
2023-01-07T21:49:40.173Z,100755.44
2023-01-07T21:52:42.934Z,100758.78
2023-01-07T21:55:45.773Z,100753.88
2023-01-07T21:58:49.059Z,100752.25
2023-01-07T22:01:52.617Z,100731.75
2023-01-07T22:04:55.292Z,100721.81
2023-01-07T22:07:57.824Z,100712.47
2023-01-07T22:11:00.576Z,100742.63
2023-01-07T22:14:02.950Z,100696.94
2023-01-07T22:17:06.786Z,100710.03
2023-01-07T22:20:09.948Z,100718.87
2023-01-07T22:23:17.132Z,100744.53
2023-01-07T22:26:20.498Z,100718.53
2023-01-07T22:29:23.202Z,100715.09
2023-01-07T22:32:25.513Z,100736.25
2023-01-07T22:35:30.393Z,100712.28
2023-01-07T22:38:33.190Z,100734.00
2023-01-07T22:41:36.481Z,100710.84
2023-01-07T22:44:45.952Z,100711.66
2023-01-07T22:47:50.978Z,100692.41
2023-01-07T22:51:07.160Z,100706.81
2023-01-07T22:54:11.577Z,100674.53
2023-01-07T22:57:14.691Z,100683.03
2023-01-07T23:00:41.397Z,100682.03
2023-01-07T23:03:45.197Z,100686.69
2023-01-07T23:06:47.904Z,100684.87
2023-01-07T23:09:51.655Z,100694.22
2023-01-07T23:12:54.462Z,100675.62
2023-01-07T23:16:00.249Z,100640.72
2023-01-07T23:19:02.902Z,100682.53
2023-01-07T23:22:05.479Z,100680.81
2023-01-07T23:25:08.371Z,100679.47
2023-01-07T23:28:10.746Z,100649.97
2023-01-07T23:31:13.568Z,100672.69
2023-01-07T23:34:16.453Z,100670.84
2023-01-07T23:37:19.049Z,100677.53
2023-01-07T23:40:21.443Z,100671.47
2023-01-07T23:43:24.327Z,100645.50
2023-01-07T23:46:26.703Z,100643.25
2023-01-07T23:49:29.691Z,100638.09
2023-01-07T23:52:31.991Z,100633.09
2023-01-07T23:55:34.685Z,100638.28
2023-01-07T23:58:37.931Z,100667.28
